createdAt,value
2023-01-04T00:01:20.017Z,2.90
2023-01-04T00:03:46.929Z,2.90
2023-01-04T00:06:15.763Z,2.90
2023-01-04T00:08:42.816Z,3.00
2023-01-04T00:11:13.860Z,3.00
2023-01-04T00:13:40.865Z,3.00
2023-01-04T00:16:12.884Z,3.10
2023-01-04T00:18:40.057Z,3.10
2023-01-04T00:21:20.211Z,3.10
2023-01-04T00:23:49.532Z,3.10
2023-01-04T00:26:19.095Z,3.10
2023-01-04T00:28:53.582Z,3.00
2023-01-04T00:31:21.587Z,3.00
2023-01-04T00:33:48.262Z,3.10
2023-01-04T00:36:15.330Z,3.00
2023-01-04T00:38:42.728Z,3.10
2023-01-04T00:41:18.901Z,3.00
2023-01-04T00:43:54.879Z,3.00
2023-01-04T00:46:21.653Z,2.90
2023-01-04T00:48:49.146Z,2.90
2023-01-04T00:51:15.863Z,2.90
2023-01-04T00:53:42.504Z,2.90
2023-01-04T00:56:09.214Z,3.00
2023-01-04T00:58:35.872Z,3.00
2023-01-04T01:01:09.161Z,2.90
2023-01-04T01:03:38.793Z,2.90
2023-01-04T01:06:07.490Z,2.80
2023-01-04T01:08:34.449Z,2.80
2023-01-04T01:11:10.071Z,2.80
2023-01-04T01:13:38.769Z,2.70
2023-01-04T01:16:08.373Z,2.70
2023-01-04T01:18:37.288Z,2.70
2023-01-04T01:21:12.989Z,2.70
2023-01-04T01:23:40.067Z,2.60
2023-01-04T01:26:10.201Z,2.60
2023-01-04T01:28:36.914Z,2.50
2023-01-04T01:31:15.083Z,2.60
2023-01-04T01:33:43.933Z,2.50
2023-01-04T01:36:12.306Z,2.50
2023-01-04T01:38:39.866Z,2.50
2023-01-04T01:41:07.530Z,2.50
2023-01-04T01:43:52.676Z,2.50
2023-01-04T01:46:50.224Z,2.50
2023-01-04T01:49:25.494Z,2.40
2023-01-04T01:51:54.772Z,2.40
2023-01-04T01:54:30.297Z,2.50
2023-01-04T01:57:00.172Z,2.40
2023-01-04T01:59:28.753Z,2.40
2023-01-04T02:01:55.566Z,2.40
2023-01-04T02:04:22.313Z,2.40
2023-01-04T02:06:52.805Z,2.40
2023-01-04T02:09:21.228Z,2.40
2023-01-04T02:11:47.907Z,2.40
2023-01-04T02:14:27.344Z,2.40
2023-01-04T02:17:32.190Z,2.50
2023-01-04T02:20:14.016Z,2.50
2023-01-04T02:23:08.379Z,2.50
2023-01-04T02:26:07.885Z,2.60
2023-01-04T02:29:05.881Z,2.60
2023-01-04T02:31:38.629Z,2.60
2023-01-04T02:34:23.344Z,2.70
2023-01-04T02:36:57.632Z,2.70
2023-01-04T02:39:45.135Z,2.70
2023-01-04T02:43:15.879Z,2.80
2023-01-04T02:45:52.120Z,2.80
2023-01-04T02:48:37.516Z,2.80
2023-01-04T02:51:04.290Z,2.80
2023-01-04T02:53:38.543Z,2.90
2023-01-04T02:56:17.695Z,2.90
2023-01-04T02:58:59.508Z,2.90
2023-01-04T03:02:04.085Z,2.80
2023-01-04T03:04:57.748Z,2.80
2023-01-04T03:07:24.439Z,2.90
2023-01-04T03:09:58.128Z,2.90
2023-01-04T03:12:33.335Z,3.00
2023-01-04T03:15:25.476Z,3.00
2023-01-04T03:17:59.889Z,3.00
2023-01-04T03:20:30.217Z,3.00
2023-01-04T03:23:24.140Z,3.00
2023-01-04T03:26:17.064Z,3.10
2023-01-04T03:29:03.250Z,3.10
2023-01-04T03:31:53.298Z,3.10
2023-01-04T03:34:38.426Z,3.20
2023-01-04T03:37:10.950Z,3.20
2023-01-04T03:40:27.321Z,3.20
2023-01-04T03:43:20.008Z,3.20
2023-01-04T03:46:20.109Z,3.20
2023-01-04T03:48:57.675Z,3.20
2023-01-04T03:51:31.196Z,3.30
2023-01-04T03:54:20.322Z,3.30
2023-01-04T03:56:49.177Z,3.30
2023-01-04T03:59:16.312Z,3.30
2023-01-04T04:01:44.830Z,3.30
2023-01-04T04:04:30.855Z,3.40
2023-01-04T04:07:16.382Z,3.40
2023-01-04T04:09:43.240Z,3.40
2023-01-04T04:12:09.894Z,3.50
2023-01-04T04:14:36.554Z,3.50
2023-01-04T04:17:03.645Z,3.50
2023-01-04T04:19:30.359Z,3.60
2023-01-04T04:21:57.000Z,3.60
2023-01-04T04:24:26.154Z,3.60
2023-01-04T04:26:57.226Z,3.60
2023-01-04T04:29:24.991Z,3.70
2023-01-04T04:31:51.993Z,3.70
2023-01-04T04:34:18.899Z,3.70
2023-01-04T04:36:45.671Z,3.70
2023-01-04T04:39:12.854Z,3.80
2023-01-04T04:41:41.470Z,3.80
2023-01-04T04:44:19.777Z,3.80
2023-01-04T04:46:48.048Z,3.80
2023-01-04T04:49:15.228Z,3.80
2023-01-04T04:51:42.824Z,3.70
2023-01-04T04:54:11.196Z,3.70
2023-01-04T04:56:38.820Z,3.70
2023-01-04T04:59:06.220Z,3.70
2023-01-04T05:01:33.547Z,3.70
2023-01-04T05:04:00.379Z,3.80
2023-01-04T05:06:27.113Z,3.70
2023-01-04T05:08:53.734Z,3.70
2023-01-04T05:11:39.018Z,3.60
2023-01-04T05:14:05.774Z,3.60
2023-01-04T05:16:32.483Z,3.70
2023-01-04T05:18:59.217Z,3.70
2023-01-04T05:21:25.955Z,3.80
2023-01-04T05:23:52.735Z,3.80
2023-01-04T05:26:19.496Z,3.90
2023-01-04T05:28:53.278Z,3.90
2023-01-04T05:31:20.879Z,4.00
2023-01-04T05:33:47.589Z,4.10
2023-01-04T05:36:14.209Z,4.10
2023-01-04T05:38:40.902Z,4.10
2023-01-04T05:41:27.607Z,4.20
2023-01-04T05:43:54.387Z,4.30
2023-01-04T05:46:21.072Z,4.30
2023-01-04T05:48:47.805Z,4.30
2023-01-04T05:51:14.423Z,4.30
2023-01-04T05:53:41.115Z,4.40
2023-01-04T05:56:07.995Z,4.30
2023-01-04T05:58:34.761Z,4.40
2023-01-04T06:01:01.395Z,4.40
2023-01-04T06:03:28.167Z,4.40
2023-01-04T06:05:54.951Z,4.40
2023-01-04T06:08:21.644Z,4.50
2023-01-04T06:10:54.264Z,4.50
2023-01-04T06:13:20.966Z,4.50
2023-01-04T06:15:47.658Z,4.50
2023-01-04T06:18:14.364Z,4.50
2023-01-04T06:20:42.715Z,4.50
2023-01-04T06:23:09.422Z,4.60
2023-01-04T06:25:36.096Z,4.60
2023-01-04T06:28:02.786Z,4.70
2023-01-04T06:30:29.667Z,4.70
2023-01-04T06:32:56.458Z,4.80
2023-01-04T06:35:23.111Z,4.80
2023-01-04T06:37:49.737Z,4.80
2023-01-04T06:40:16.498Z,4.90
2023-01-04T06:42:45.994Z,4.90
2023-01-04T06:45:14.766Z,4.90
2023-01-04T06:47:41.842Z,4.90
2023-01-04T06:50:09.149Z,4.90
2023-01-04T06:52:36.344Z,4.90
2023-01-04T06:55:03.108Z,5.00
2023-01-04T06:57:30.072Z,5.00
2023-01-04T06:59:56.709Z,5.00
2023-01-04T07:02:23.617Z,5.00
2023-01-04T07:04:50.525Z,5.00
2023-01-04T07:07:17.384Z,5.10
2023-01-04T07:09:44.047Z,5.10
2023-01-04T07:12:10.721Z,5.10
2023-01-04T07:14:37.413Z,5.20
2023-01-04T07:17:04.113Z,5.20
2023-01-04T07:19:30.795Z,5.20
2023-01-04T07:21:58.839Z,5.20
2023-01-04T07:24:30.022Z,5.20
2023-01-04T07:26:59.205Z,5.30
2023-01-04T07:29:25.903Z,5.30
2023-01-04T07:31:53.374Z,5.40
2023-01-04T07:34:24.754Z,5.60
2023-01-04T07:36:51.863Z,5.60
2023-01-04T07:39:19.737Z,5.80
2023-01-04T07:41:47.377Z,5.80
2023-01-04T07:44:14.840Z,5.90
2023-01-04T07:46:42.728Z,5.90
2023-01-04T07:49:17.779Z,6.00
2023-01-04T07:51:46.408Z,6.00
2023-01-04T07:54:13.888Z,6.10
2023-01-04T07:56:40.558Z,6.10
2023-01-04T07:59:09.341Z,6.10
2023-01-04T08:01:37.896Z,6.10
2023-01-04T08:04:09.362Z,6.10
2023-01-04T08:06:36.859Z,6.20
2023-01-04T08:09:05.052Z,6.20
2023-01-04T08:11:32.288Z,6.30
2023-01-04T08:13:59.292Z,6.30
2023-01-04T08:16:31.650Z,6.30
2023-01-04T08:19:01.710Z,6.30
2023-01-04T08:21:30.571Z,6.40
2023-01-04T08:23:57.286Z,6.40
2023-01-04T08:26:24.239Z,6.40
2023-01-04T08:28:51.653Z,6.50
2023-01-04T08:31:24.165Z,6.50
2023-01-04T08:33:51.794Z,6.50
2023-01-04T08:36:26.521Z,6.50
2023-01-04T08:39:01.562Z,6.60
2023-01-04T08:41:56.777Z,6.60
2023-01-04T08:44:25.229Z,6.60
2023-01-04T08:46:53.538Z,6.70
2023-01-04T08:49:21.872Z,6.70
2023-01-04T08:51:49.277Z,6.80
2023-01-04T08:54:16.141Z,6.80
2023-01-04T08:56:42.889Z,6.90
2023-01-04T08:59:11.190Z,7.00
2023-01-04T09:01:39.330Z,7.10
2023-01-04T09:04:06.450Z,7.20
2023-01-04T09:06:33.473Z,7.30
2023-01-04T09:09:00.168Z,7.40
2023-01-04T09:11:27.069Z,7.50
2023-01-04T09:14:06.735Z,7.60
2023-01-04T09:16:34.290Z,7.60
2023-01-04T09:19:01.069Z,7.60
2023-01-04T09:21:28.334Z,7.70
2023-01-04T09:23:57.588Z,7.80
2023-01-04T09:26:24.764Z,7.90
2023-01-04T09:28:56.202Z,7.90
2023-01-04T09:31:26.193Z,8.00
2023-01-04T09:36:40.614Z,8.00
2023-01-04T09:39:07.435Z,8.10
2023-01-04T09:41:43.005Z,8.10
2023-01-04T09:44:09.837Z,8.20
2023-01-04T09:47:08.482Z,8.10
2023-01-04T09:49:37.891Z,8.20
2023-01-04T09:52:13.227Z,8.20
2023-01-04T09:54:57.615Z,8.30
2023-01-04T09:57:30.009Z,8.30
2023-01-04T10:00:06.010Z,8.30
2023-01-04T10:03:03.687Z,8.40
2023-01-04T10:05:32.749Z,8.40
2023-01-04T10:07:59.885Z,8.50
2023-01-04T10:10:37.259Z,8.60
2023-01-04T10:13:33.907Z,8.70
2023-01-04T10:16:17.625Z,8.70
2023-01-04T10:19:50.875Z,8.80
2023-01-04T10:22:22.091Z,8.80
2023-01-04T10:25:15.461Z,8.80
2023-01-04T10:27:54.511Z,8.80
2023-01-04T10:30:26.566Z,8.80
2023-01-04T10:33:14.426Z,8.80
2023-01-04T10:35:44.276Z,9.00
2023-01-04T10:38:23.788Z,9.20
2023-01-04T10:40:50.647Z,9.30
2023-01-04T10:44:11.889Z,9.30
2023-01-04T10:46:52.927Z,9.30
2023-01-04T10:49:38.082Z,9.30
2023-01-04T10:52:19.223Z,9.30
2023-01-04T10:54:52.521Z,9.20
2023-01-04T10:57:27.074Z,9.30
2023-01-04T11:00:04.850Z,9.20
2023-01-04T11:02:38.795Z,9.20
2023-01-04T11:05:28.705Z,9.20
2023-01-04T11:08:20.909Z,9.20
2023-01-04T11:10:57.498Z,9.10
2023-01-04T11:13:24.989Z,9.10
2023-01-04T11:15:52.864Z,9.20
2023-01-04T11:18:20.000Z,9.20
2023-01-04T11:20:46.853Z,9.10
2023-01-04T11:23:19.201Z,9.20
2023-01-04T11:25:59.821Z,9.20
2023-01-04T11:29:00.579Z,9.20
2023-01-04T11:32:01.562Z,9.20
2023-01-04T11:34:45.718Z,9.30
2023-01-04T11:37:24.153Z,9.30
2023-01-04T11:39:50.792Z,9.30
2023-01-04T11:42:21.805Z,9.30
2023-01-04T11:45:01.913Z,9.20
2023-01-04T11:47:32.986Z,9.20
2023-01-04T11:49:59.988Z,9.20
2023-01-04T11:52:31.495Z,9.20
2023-01-04T11:55:23.122Z,9.20
2023-01-04T11:58:08.394Z,9.10
2023-01-04T12:00:35.117Z,9.00
2023-01-04T12:03:32.118Z,9.00
2023-01-04T12:05:59.304Z,9.10
2023-01-04T12:08:31.950Z,9.10
2023-01-04T12:11:00.967Z,9.30
2023-01-04T12:13:29.062Z,9.50
2023-01-04T12:16:11.052Z,9.60
2023-01-04T12:18:41.766Z,9.70
2023-01-04T12:21:21.017Z,9.80
2023-01-04T12:23:48.437Z,9.90
2023-01-04T12:26:16.527Z,10.00
2023-01-04T12:28:49.571Z,10.00
2023-01-04T12:31:20.133Z,10.00
2023-01-04T12:33:52.499Z,10.10
2023-01-04T12:36:20.716Z,10.00
2023-01-04T12:39:00.752Z,10.10
2023-01-04T12:41:33.417Z,10.10
2023-01-04T12:44:01.289Z,10.10
2023-01-04T12:46:49.281Z,10.20
2023-01-04T12:49:28.029Z,10.20
2023-01-04T12:52:31.989Z,10.20
2023-01-04T12:55:02.852Z,10.30
2023-01-04T12:57:38.406Z,10.40
2023-01-04T13:00:06.932Z,10.40
2023-01-04T13:02:44.134Z,10.50
2023-01-04T13:08:11.046Z,10.50
2023-01-04T13:10:37.739Z,10.50
2023-01-04T13:13:38.506Z,10.50
2023-01-04T13:16:43.596Z,10.50
2023-01-04T13:19:22.176Z,10.40
2023-01-04T13:21:51.329Z,10.40
2023-01-04T13:24:31.155Z,10.40
2023-01-04T13:27:06.906Z,10.30
2023-01-04T13:29:35.229Z,10.30
2023-01-04T13:32:15.712Z,10.40
2023-01-04T13:35:16.535Z,10.50
2023-01-04T13:37:47.907Z,10.50
2023-01-04T13:40:20.529Z,10.50
2023-01-04T13:42:58.469Z,10.50
2023-01-04T13:45:43.765Z,10.60
2023-01-04T13:48:14.604Z,10.50
2023-01-04T13:50:49.751Z,10.50
2023-01-04T13:53:21.163Z,10.50
2023-01-04T13:56:02.271Z,10.60
2023-01-04T13:58:31.710Z,10.60
2023-01-04T14:01:00.270Z,10.60
2023-01-04T14:03:42.728Z,10.70
2023-01-04T14:06:09.329Z,10.60
2023-01-04T14:08:49.546Z,10.70
2023-01-04T14:12:07.831Z,10.60
2023-01-04T14:14:40.996Z,10.60
2023-01-04T14:17:13.845Z,10.60
2023-01-04T14:19:46.359Z,10.70
2023-01-04T14:22:39.305Z,10.70
2023-01-04T14:25:40.553Z,10.70
2023-01-04T14:28:19.649Z,10.70
2023-01-04T14:30:48.299Z,10.80
2023-01-04T14:33:23.248Z,10.80
2023-01-04T14:36:18.709Z,10.70
2023-01-04T14:39:12.669Z,10.70
2023-01-04T14:41:41.745Z,10.70
2023-01-04T14:44:13.179Z,10.70
2023-01-04T14:46:43.390Z,10.60
2023-01-04T14:49:10.213Z,10.60
2023-01-04T14:51:52.341Z,10.60
2023-01-04T14:54:24.749Z,10.60
2023-01-04T14:56:54.134Z,10.60
2023-01-04T14:59:23.956Z,10.60
2023-01-04T15:01:55.145Z,10.60
2023-01-04T15:04:22.334Z,10.60
2023-01-04T15:06:55.047Z,10.60
2023-01-04T15:09:22.304Z,10.50
2023-01-04T15:11:49.061Z,10.50
2023-01-04T15:14:16.079Z,10.50
2023-01-04T15:16:43.067Z,10.40
2023-01-04T15:19:09.908Z,10.40
2023-01-04T15:21:40.889Z,10.40
2023-01-04T15:24:09.185Z,10.40
2023-01-04T15:26:36.050Z,10.40
2023-01-04T15:29:03.539Z,10.40
2023-01-04T15:31:36.687Z,10.30
2023-01-04T15:34:05.424Z,10.30
2023-01-04T15:36:32.269Z,10.30
2023-01-04T15:38:58.969Z,10.30
2023-01-04T15:41:44.460Z,10.30
2023-01-04T15:44:11.839Z,10.30
2023-01-04T15:46:39.038Z,10.20
2023-01-04T15:49:08.267Z,10.20
2023-01-04T15:51:37.444Z,10.20
2023-01-04T15:54:04.260Z,10.20
2023-01-04T15:56:30.955Z,10.20
2023-01-04T15:58:57.667Z,10.10
2023-01-04T16:01:24.465Z,10.20
2023-01-04T16:03:53.942Z,10.20
2023-01-04T16:06:22.243Z,10.20
2023-01-04T16:08:51.766Z,10.20
2023-01-04T16:11:24.684Z,10.30
2023-01-04T16:13:52.772Z,10.20
2023-01-04T16:16:21.354Z,10.20
2023-01-04T16:18:50.644Z,10.20
2023-01-04T16:21:21.819Z,10.20
2023-01-04T16:23:54.857Z,10.20
2023-01-04T16:26:25.268Z,10.20
2023-01-04T16:28:54.194Z,10.20
2023-01-04T16:31:22.029Z,10.20
2023-01-04T16:33:52.520Z,10.20
2023-01-04T16:36:19.404Z,10.20
2023-01-04T16:38:46.537Z,10.20
2023-01-04T16:41:16.171Z,10.20
2023-01-04T16:43:45.387Z,10.20
2023-01-04T16:46:15.255Z,10.20
2023-01-04T16:48:50.656Z,10.20
2023-01-04T16:51:17.695Z,10.20
2023-01-04T16:53:44.517Z,10.20
2023-01-04T16:56:14.603Z,10.20
2023-01-04T16:58:44.285Z,10.20
2023-01-04T17:01:20.388Z,10.10
2023-01-04T17:03:48.225Z,10.10
2023-01-04T17:06:21.385Z,10.10
2023-01-04T17:08:49.861Z,10.00
2023-01-04T17:14:13.585Z,9.90
2023-01-04T17:16:40.876Z,9.80
2023-01-04T17:19:07.743Z,9.80
2023-01-04T17:21:35.448Z,9.80
2023-01-04T17:24:02.871Z,9.70
2023-01-04T17:26:31.897Z,9.70
2023-01-04T17:29:00.171Z,9.70
2023-01-04T17:31:35.749Z,9.70
2023-01-04T17:34:03.048Z,9.80
2023-01-04T17:36:29.913Z,9.80
2023-01-04T17:38:59.176Z,9.80
2023-01-04T17:41:27.055Z,9.70
2023-01-04T17:44:02.412Z,9.70
2023-01-04T17:46:32.519Z,9.70
2023-01-04T17:51:49.471Z,9.60
2023-01-04T17:54:16.793Z,9.50
2023-01-04T17:56:43.471Z,9.50
2023-01-04T17:59:11.855Z,9.50
2023-01-04T18:01:38.777Z,9.40
2023-01-04T18:04:05.636Z,9.30
2023-01-04T18:06:34.470Z,9.30
2023-01-04T18:09:02.458Z,9.30
2023-01-04T18:11:29.649Z,9.20
2023-01-04T18:13:56.551Z,9.20
2023-01-04T18:16:26.708Z,9.20
2023-01-04T18:18:55.290Z,9.10
2023-01-04T18:21:29.101Z,9.00
2023-01-04T18:24:34.632Z,8.90
2023-01-04T18:27:19.819Z,8.90
2023-01-04T18:29:34.861Z,8.80
2023-01-04T18:32:01.831Z,8.80
2023-01-04T18:34:28.609Z,8.80
2023-01-04T18:36:55.363Z,8.80
2023-01-04T18:39:22.122Z,8.80
2023-01-04T18:41:48.914Z,8.80
2023-01-04T18:44:32.694Z,8.80
2023-01-04T18:47:00.403Z,8.80
2023-01-04T18:49:27.124Z,8.80
2023-01-04T18:51:53.780Z,8.80
2023-01-04T18:54:21.549Z,8.90
2023-01-04T18:56:48.484Z,8.90
2023-01-04T18:59:17.228Z,8.90
2023-01-04T19:01:45.438Z,8.90
2023-01-04T19:04:12.704Z,8.90
2023-01-04T19:06:40.930Z,8.90
2023-01-04T19:09:08.295Z,8.80
2023-01-04T19:11:36.013Z,8.80
2023-01-04T19:14:03.915Z,8.80
2023-01-04T19:16:31.644Z,8.90
2023-01-04T19:19:02.071Z,8.90
2023-01-04T19:21:29.164Z,8.90
2023-01-04T19:23:56.264Z,8.90
2023-01-04T19:26:23.909Z,8.90
2023-01-04T19:28:51.682Z,8.90
2023-01-04T19:31:21.084Z,8.90
2023-01-04T19:33:48.751Z,8.90
2023-01-04T19:36:18.601Z,8.90
2023-01-04T19:38:45.658Z,8.90
2023-01-04T19:41:21.014Z,8.90
2023-01-04T19:43:48.426Z,8.90
2023-01-04T19:46:16.205Z,9.00
2023-01-04T19:48:43.781Z,9.00
2023-01-04T19:51:16.397Z,9.10
2023-01-04T19:53:44.433Z,9.10
2023-01-04T19:56:13.268Z,9.10
2023-01-04T19:58:40.732Z,9.10
2023-01-04T20:01:11.817Z,9.10
2023-01-04T20:03:38.888Z,9.10
2023-01-04T20:06:06.564Z,9.10
2023-01-04T20:08:33.619Z,9.20
2023-01-04T20:11:01.910Z,9.20
2023-01-04T20:13:30.331Z,9.30
2023-01-04T20:15:57.119Z,9.30
2023-01-04T20:18:24.140Z,9.30
2023-01-04T20:20:52.186Z,9.40
2023-01-04T20:23:19.416Z,9.40
2023-01-04T20:25:48.173Z,9.40
2023-01-04T20:28:16.036Z,9.40
2023-01-04T20:30:42.809Z,9.50
2023-01-04T20:33:10.210Z,9.50
2023-01-04T20:35:42.621Z,9.50
2023-01-04T20:38:10.783Z,9.50
2023-01-04T20:40:38.617Z,9.60
2023-01-04T20:43:24.460Z,9.60
2023-01-04T20:45:51.304Z,9.70
2023-01-04T20:48:18.023Z,9.70
2023-01-04T20:50:45.126Z,9.70
2023-01-04T20:53:13.767Z,9.70
2023-01-04T20:55:41.901Z,9.70
2023-01-04T20:58:11.318Z,9.70
2023-01-04T21:00:39.072Z,9.80
2023-01-04T21:03:07.510Z,9.80
2023-01-04T21:05:45.038Z,9.80
2023-01-04T21:08:12.696Z,9.90
2023-01-04T21:10:43.867Z,9.90
2023-01-04T21:13:12.379Z,9.90
2023-01-04T21:15:41.275Z,9.80
2023-01-04T21:18:11.618Z,9.80
2023-01-04T21:20:43.186Z,9.80
2023-01-04T21:23:18.461Z,9.80
2023-01-04T21:25:45.581Z,9.70
2023-01-04T21:28:13.756Z,9.60
2023-01-04T21:30:42.016Z,9.60
2023-01-04T21:33:10.045Z,9.60
2023-01-04T21:35:37.520Z,9.60
2023-01-04T21:38:05.458Z,9.60
2023-01-04T21:40:33.206Z,9.60
2023-01-04T21:43:00.317Z,9.60
2023-01-04T21:45:27.081Z,9.50
2023-01-04T21:47:54.723Z,9.60
2023-01-04T21:50:21.524Z,9.50
2023-01-04T21:52:48.310Z,9.60
2023-01-04T21:55:15.009Z,9.60
2023-01-04T21:57:41.769Z,9.60
2023-01-04T22:00:09.080Z,9.70
2023-01-04T22:02:35.815Z,9.70
2023-01-04T22:05:02.658Z,9.80
2023-01-04T22:07:29.433Z,9.80
2023-01-04T22:09:57.726Z,9.80
2023-01-04T22:12:24.639Z,9.80
2023-01-04T22:14:51.725Z,9.90
2023-01-04T22:17:18.712Z,9.90
2023-01-04T22:19:45.453Z,9.90
2023-01-04T22:22:12.154Z,9.90
2023-01-04T22:24:38.926Z,9.90
2023-01-04T22:27:05.710Z,9.90
2023-01-04T22:29:32.506Z,9.90
2023-01-04T22:31:59.607Z,9.90
2023-01-04T22:34:27.990Z,9.90
2023-01-04T22:36:54.777Z,10.00
2023-01-04T22:51:56.151Z,9.80
2023-01-04T22:54:23.583Z,9.80
2023-01-04T22:56:50.558Z,9.80
2023-01-04T22:59:17.741Z,9.80
2023-01-04T23:01:44.524Z,9.80
2023-01-04T23:04:15.542Z,9.70
2023-01-04T23:06:42.758Z,9.70
2023-01-04T23:09:13.154Z,9.70
2023-01-04T23:11:41.084Z,9.80
2023-01-04T23:14:12.047Z,9.90
2023-01-04T23:16:39.003Z,9.90
2023-01-04T23:19:06.640Z,10.00
2023-01-04T23:21:35.069Z,10.00
2023-01-04T23:24:02.007Z,10.10
2023-01-04T23:26:30.230Z,10.00
2023-01-04T23:28:57.445Z,10.00
2023-01-04T23:31:25.900Z,10.00
2023-01-04T23:33:54.852Z,10.00
2023-01-04T23:36:24.814Z,10.00
2023-01-04T23:38:57.152Z,10.00
2023-01-04T23:41:44.228Z,9.90
2023-01-04T23:46:59.822Z,9.80
2023-01-04T23:49:28.325Z,9.80
2023-01-04T23:51:55.224Z,9.80
2023-01-04T23:54:22.751Z,9.80
2023-01-04T23:56:49.629Z,9.80
2023-01-04T23:59:16.322Z,9.70
